Time;durP1;ratioP1;P1;durP2;ratioP2;P2;SDS_P1;SDS_P2;PMS_P1;PMS_P2;Temp;Humidity;BMP_temperature;BMP_pressure;BME280_temperature;BME280_humidity;BME280_pressure;Samples;Min_cycle;Max_cycle;Signal;HPM_P1;HPM_P2
2023/11/20 00:00:53;;;;;;;10.82;3.13;;;9.10;1.00;;;;;;7375759;19;20513;-69
2023/11/20 00:03:28;;;;;;;14.63;2.50;;;9.00;1.00;;;;;;7376084;19;20011;-70
2023/11/20 00:05:59;;;;;;;8.80;2.63;;;9.00;1.00;;;;;;7373413;19;20006;-70
2023/11/20 00:08:29;;;;;;;10.88;2.30;;;8.90;1.00;;;;;;7374839;19;20511;-70
2023/11/20 00:10:58;;;;;;;11.73;2.60;;;8.90;1.00;;;;;;7374202;19;20009;-70
2023/11/20 00:13:28;;;;;;;12.15;2.67;;;8.90;1.00;;;;;;7375713;19;20404;-70
2023/11/20 00:15:58;;;;;;;12.82;3.10;;;9.10;1.00;;;;;;7374520;19;20065;-70
2023/11/20 00:18:31;;;;;;;11.45;3.13;;;9.10;1.00;;;;;;7375643;19;20109;-70
2023/11/20 00:21:01;;;;;;;11.85;2.75;;;9.20;1.00;;;;;;7376215;19;20011;-70
2023/11/20 00:23:31;;;;;;;11.13;2.85;;;9.30;1.00;;;;;;7375880;19;20571;-69
2023/11/20 00:26:01;;;;;;;13.23;2.63;;;9.40;1.00;;;;;;7372930;19;19998;-69
2023/11/20 00:28:32;;;;;;;12.60;3.22;;;9.30;1.00;;;;;;7377006;19;20034;-69
2023/11/20 00:31:03;;;;;;;14.57;2.95;;;9.30;1.00;;;;;;7374908;19;20393;-69
2023/11/20 00:33:36;;;;;;;12.65;3.15;;;9.60;1.00;;;;;;7378216;19;20057;-69
2023/11/20 00:36:08;;;;;;;12.95;3.17;;;9.40;1.00;;;;;;7374934;19;20010;-69
2023/11/20 00:38:38;;;;;;;10.90;2.95;;;9.40;1.00;;;;;;7378697;19;20028;-69
2023/11/20 00:41:09;;;;;;;8.77;2.55;;;9.40;1.00;;;;;;7377731;19;20011;-69
2023/11/20 00:43:40;;;;;;;10.75;2.53;;;9.30;1.00;;;;;;7377164;19;20490;-70
2023/11/20 00:46:10;;;;;;;11.20;3.20;;;9.30;1.00;;;;;;7375256;19;20042;-69
2023/11/20 00:48:44;;;;;;;12.40;2.72;;;9.30;1.00;;;;;;7377352;19;20011;-69
2023/11/20 00:51:15;;;;;;;14.60;2.63;;;9.20;1.00;;;;;;7374434;19;20019;-69
2023/11/20 00:53:48;;;;;;;15.07;2.65;;;9.20;1.00;;;;;;7374533;19;20010;-70
2023/11/20 00:56:21;;;;;;;9.38;2.75;;;9.20;1.00;;;;;;7375191;19;20049;-69
2023/11/20 00:58:51;;;;;;;11.25;2.85;;;9.20;1.00;;;;;;7375918;19;20420;-69
2023/11/20 01:01:21;;;;;;;9.35;2.67;;;9.20;1.00;;;;;;7376768;19;20111;-69
2023/11/20 01:03:53;;;;;;;13.02;3.47;;;9.30;1.00;;;;;;7374900;19;20035;-70
2023/11/20 01:06:24;;;;;;;11.65;2.90;;;9.30;1.00;;;;;;7373266;19;20027;-70
2023/11/20 01:08:54;;;;;;;9.23;2.88;;;9.30;1.00;;;;;;7374817;19;20022;-70
2023/11/20 01:11:24;;;;;;;15.35;2.95;;;9.40;1.00;;;;;;7374710;19;20011;-71
2023/11/20 01:13:55;;;;;;;8.98;2.50;;;9.60;1.00;;;;;;7373895;19;20014;-70
2023/11/20 01:16:25;;;;;;;15.93;3.40;;;9.70;1.00;;;;;;7374904;19;20015;-70
2023/11/20 01:18:58;;;;;;;12.52;2.47;;;9.90;1.00;;;;;;7374162;19;20010;-69
2023/11/20 01:21:29;;;;;;;11.15;2.83;;;9.80;1.00;;;;;;7377938;19;20010;-69
2023/11/20 01:23:59;;;;;;;10.63;2.83;;;9.80;1.00;;;;;;7380402;19;20030;-70
2023/11/20 01:26:29;;;;;;;17.30;2.95;;;9.80;1.00;;;;;;7379792;19;20025;-69
2023/11/20 01:28:59;;;;;;;7.97;2.47;;;9.80;1.00;;;;;;7382295;19;20021;-70
2023/11/20 01:31:29;;;;;;;15.13;2.97;;;9.70;1.00;;;;;;7381145;19;20018;-69
2023/11/20 01:34:01;;;;;;;13.52;3.10;;;9.80;1.00;;;;;;7379998;19;20125;-70
2023/11/20 01:36:31;;;;;;;12.18;3.20;;;10.00;1.00;;;;;;7378746;19;20078;-71
2023/11/20 01:39:01;;;;;;;14.75;3.47;;;10.00;1.00;;;;;;7381863;19;20036;-70
2023/11/20 01:41:31;;;;;;;10.82;2.85;;;10.00;1.00;;;;;;7380711;19;19999;-70
2023/11/20 01:44:06;;;;;;;10.23;2.78;;;10.00;1.00;;;;;;7381167;19;20002;-70
2023/11/20 01:46:38;;;;;;;16.30;3.05;;;10.00;1.00;;;;;;7380063;19;20010;-70
2023/11/20 01:49:12;;;;;;;11.75;2.67;;;10.00;1.00;;;;;;7380828;19;20804;-70
2023/11/20 01:51:42;;;;;;;11.43;2.80;;;10.10;1.00;;;;;;7379922;19;20003;-70
2023/11/20 01:54:13;;;;;;;9.65;2.58;;;10.10;1.00;;;;;;7380973;19;20002;-70
2023/11/20 01:56:44;;;;;;;11.68;2.80;;;10.10;1.00;;;;;;7382079;19;20010;-69
2023/11/20 01:59:17;;;;;;;11.02;2.92;;;10.10;1.00;;;;;;7379064;19;20082;-69
2023/11/20 02:01:47;;;;;;;9.27;2.45;;;10.20;1.00;;;;;;7379724;19;20097;-68
2023/11/20 02:04:25;;;;;;;15.07;2.80;;;10.10;1.00;;;;;;7378288;19;20032;-69
2023/11/20 02:06:55;;;;;;;11.82;3.05;;;10.10;1.00;;;;;;7379599;19;20017;-70
2023/11/20 02:09:26;;;;;;;9.35;2.67;;;10.10;1.00;;;;;;7379398;19;20114;-70
2023/11/20 02:11:56;;;;;;;13.48;3.10;;;10.00;1.00;;;;;;7378866;19;20015;-70
2023/11/20 02:14:27;;;;;;;15.82;2.70;;;10.00;1.00;;;;;;7378715;19;20015;-70
2023/11/20 02:16:57;;;;;;;13.70;3.20;;;10.00;1.00;;;;;;7379629;19;20072;-70
2023/11/20 02:19:29;;;;;;;10.02;2.22;;;9.90;1.00;;;;;;7379272;19;20090;-70
2023/11/20 02:22:03;;;;;;;12.43;2.70;;;10.00;1.00;;;;;;7379025;19;20098;-70
2023/11/20 02:24:34;;;;;;;10.13;2.30;;;10.10;1.00;;;;;;7378986;19;20093;-70
2023/11/20 02:27:15;;;;;;;8.70;2.28;;;10.00;1.00;;;;;;7378951;19;20022;-71
2023/11/20 02:30:03;;;;;;;10.25;2.70;;;10.10;1.00;;;;;;7376511;19;20014;-70
2023/11/20 02:32:35;;;;;;;10.18;2.47;;;10.10;1.00;;;;;;6968601;19;2004588;-70
2023/11/20 02:35:05;;;;;;;10.35;3.05;;;10.10;1.00;;;;;;7377477;19;20003;-70
2023/11/20 02:37:35;;;;;;;12.30;3.22;;;10.10;1.00;;;;;;7379652;19;20036;-70
2023/11/20 02:40:10;;;;;;;11.32;2.55;;;10.10;1.00;;;;;;7379093;19;20006;-70
2023/11/20 02:42:41;;;;;;;10.23;2.80;;;10.00;1.00;;;;;;7379166;19;20010;-70
2023/11/20 02:45:16;;;;;;;12.80;2.60;;;10.00;1.00;;;;;;7377384;19;20776;-70
2023/11/20 02:47:47;;;;;;;8.10;2.40;;;10.00;1.00;;;;;;7378851;19;20719;-70
2023/11/20 02:50:17;;;;;;;12.38;2.40;;;10.00;1.00;;;;;;7380110;19;20039;-71
2023/11/20 02:52:48;;;;;;;15.35;2.92;;;10.00;1.00;;;;;;7379088;19;20013;-70
2023/11/20 02:55:18;;;;;;;13.07;3.08;;;10.10;1.00;;;;;;7378562;19;20018;-70
2023/11/20 02:57:48;;;;;;;10.88;2.85;;;10.10;1.00;;;;;;7379433;19;20026;-70
2023/11/20 03:00:23;;;;;;;14.55;2.78;;;10.20;1.00;;;;;;7377945;19;20082;-70
2023/11/20 03:02:53;;;;;;;15.98;3.00;;;10.30;1.00;;;;;;7378975;19;20110;-70
2023/11/20 03:05:23;;;;;;;12.70;2.75;;;10.30;1.00;;;;;;7378356;19;20018;-70
2023/11/20 03:07:54;;;;;;;22.30;7.32;;;10.30;1.00;;;;;;7377923;19;20471;-69
2023/11/20 03:10:25;;;;;;;15.98;3.65;;;10.40;1.00;;;;;;7378156;19;20014;-69
2023/11/20 03:12:56;;;;;;;11.48;3.22;;;10.30;1.00;;;;;;7377585;19;20015;-69
2023/11/20 03:15:28;;;;;;;7.38;2.53;;;10.40;1.00;;;;;;7377051;19;20598;-69
2023/11/20 03:17:58;;;;;;;10.43;2.65;;;10.50;1.00;;;;;;7377881;19;20025;-69
2023/11/20 03:20:28;;;;;;;12.73;2.88;;;10.40;1.00;;;;;;7378224;19;20043;-70
2023/11/20 03:22:58;;;;;;;7.88;2.13;;;10.50;1.00;;;;;;7378012;19;20021;-70
2023/11/20 03:25:28;;;;;;;9.88;2.20;;;10.50;1.00;;;;;;7377423;19;20033;-71
2023/11/20 03:27:58;;;;;;;13.15;2.92;;;10.50;1.00;;;;;;7378636;19;20010;-70
2023/11/20 03:30:32;;;;;;;8.57;2.10;;;10.50;1.00;;;;;;7378201;19;20483;-71
2023/11/20 03:33:02;;;;;;;15.43;2.90;;;10.60;1.00;;;;;;7376722;19;20010;-70
2023/11/20 03:35:32;;;;;;;9.88;2.28;;;10.60;1.00;;;;;;7375623;19;20065;-70
2023/11/20 03:38:02;;;;;;;8.45;2.38;;;10.70;1.00;;;;;;7376365;19;19999;-70
2023/11/20 03:40:32;;;;;;;18.40;3.10;;;10.60;1.00;;;;;;7375592;19;20022;-70
2023/11/20 03:43:03;;;;;;;11.20;2.70;;;10.60;1.00;;;;;;7375460;19;20007;-71
2023/11/20 03:45:35;;;;;;;12.40;2.92;;;10.60;1.00;;;;;;7375151;19;20036;-70
2023/11/20 03:48:07;;;;;;;11.65;2.72;;;10.70;1.00;;;;;;7376024;19;20011;-70
2023/11/20 03:50:37;;;;;;;11.23;2.30;;;10.80;1.00;;;;;;7377227;19;20015;-71
2023/11/20 03:53:07;;;;;;;9.82;1.95;;;10.70;1.00;;;;;;7376354;19;20017;-70
2023/11/20 03:55:37;;;;;;;9.85;2.60;;;10.80;1.00;;;;;;7375265;19;20017;-70
2023/11/20 03:58:08;;;;;;;15.82;2.80;;;10.80;1.00;;;;;;7375597;19;20018;-71
2023/11/20 04:00:41;;;;;;;13.95;2.50;;;10.90;1.00;;;;;;7376574;19;20206;-70
2023/11/20 04:03:12;;;;;;;9.00;2.35;;;10.90;1.00;;;;;;7374180;19;20085;-71
2023/11/20 04:05:42;;;;;;;11.23;2.40;;;11.00;1.00;;;;;;7373705;19;20022;-69
2023/11/20 04:08:12;;;;;;;12.98;2.28;;;10.90;1.00;;;;;;7375303;19;20351;-70
2023/11/20 04:10:42;;;;;;;10.25;3.08;;;11.00;1.00;;;;;;7376024;19;20014;-70
2023/11/20 04:13:12;;;;;;;15.88;3.08;;;11.00;1.00;;;;;;7375397;19;20610;-70
2023/11/20 04:15:44;;;;;;;12.82;2.50;;;11.00;1.00;;;;;;7371367;19;20018;-70
2023/11/20 04:18:15;;;;;;;11.57;2.63;;;11.10;1.00;;;;;;7376080;19;20017;-69
2023/11/20 04:20:45;;;;;;;14.32;2.90;;;11.10;1.00;;;;;;7376047;19;20011;-71
2023/11/20 04:23:17;;;;;;;13.38;2.45;;;11.20;1.00;;;;;;7374896;19;20010;-69
2023/11/20 04:25:47;;;;;;;9.50;2.20;;;11.20;1.00;;;;;;7374378;19;20010;-69
2023/11/20 04:28:17;;;;;;;16.95;2.70;;;11.20;1.00;;;;;;7374853;19;20007;-69
2023/11/20 04:30:50;;;;;;;9.70;2.78;;;11.10;1.00;;;;;;7372625;19;20520;-68
2023/11/20 04:33:20;;;;;;;11.93;2.20;;;11.00;1.00;;;;;;7374936;19;20027;-69
2023/11/20 04:35:50;;;;;;;8.90;2.10;;;11.00;1.00;;;;;;7374839;19;20022;-69
2023/11/20 04:38:28;;;;;;;11.77;2.30;;;11.00;1.00;;;;;;7375848;19;20023;-69
2023/11/20 04:40:58;;;;;;;7.55;2.08;;;10.90;1.00;;;;;;7372740;19;20006;-69
2023/11/20 04:43:28;;;;;;;7.90;2.20;;;10.90;1.00;;;;;;7375707;19;20385;-69
2023/11/20 04:46:01;;;;;;;11.35;2.42;;;10.80;1.00;;;;;;7374514;19;20040;-69
2023/11/20 04:48:33;;;;;;;9.18;2.33;;;10.70;1.00;;;;;;7372408;19;20480;-70
2023/11/20 04:51:03;;;;;;;13.85;2.42;;;10.70;1.00;;;;;;7373988;19;20463;-70
2023/11/20 04:53:33;;;;;;;12.07;2.50;;;10.70;1.00;;;;;;7374452;19;20467;-70
2023/11/20 04:56:03;;;;;;;7.95;2.30;;;10.60;1.00;;;;;;7374524;19;20003;-69
2023/11/20 04:58:33;;;;;;;10.00;2.20;;;10.60;1.00;;;;;;7380817;19;20014;-69
2023/11/20 05:01:10;;;;;;;12.00;2.75;;;10.70;1.00;;;;;;7380346;19;20040;-69
2023/11/20 05:03:40;;;;;;;12.20;2.30;;;10.60;1.00;;;;;;7380546;19;20523;-70
2023/11/20 05:06:12;;;;;;;12.20;2.38;;;10.60;1.00;;;;;;7379350;19;20010;-67
2023/11/20 05:08:42;;;;;;;9.43;2.30;;;10.70;1.00;;;;;;7380507;19;20078;-69
2023/11/20 05:11:13;;;;;;;13.27;2.60;;;10.70;1.00;;;;;;7380683;19;20614;-69
2023/11/20 05:13:43;;;;;;;12.70;2.45;;;10.70;1.00;;;;;;7380273;19;20098;-69
2023/11/20 05:16:16;;;;;;;8.27;2.28;;;10.70;1.00;;;;;;7381202;19;20017;-69
2023/11/20 05:18:46;;;;;;;10.77;2.80;;;10.70;1.00;;;;;;7382119;19;20014;-69
2023/11/20 05:21:17;;;;;;;10.00;3.00;;;10.70;1.00;;;;;;7381997;19;20061;-70
2023/11/20 05:23:47;;;;;;;13.60;2.50;;;10.70;1.00;;;;;;7380826;19;20021;-69
2023/11/20 05:26:19;;;;;;;10.02;2.47;;;10.60;1.00;;;;;;7380730;19;20841;-69
2023/11/20 05:28:51;;;;;;;11.00;2.50;;;10.60;1.00;;;;;;7381283;19;20486;-69
2023/11/20 05:31:23;;;;;;;10.85;3.08;;;10.60;1.00;;;;;;7380868;19;20018;-69
2023/11/20 05:33:54;;;;;;;12.82;3.28;;;10.60;1.00;;;;;;7379892;19;20011;-69
2023/11/20 05:36:25;;;;;;;15.57;3.45;;;10.50;1.00;;;;;;7380228;19;20625;-69
2023/11/20 05:38:55;;;;;;;10.15;2.65;;;10.60;1.00;;;;;;7379704;19;20371;-69
2023/11/20 05:41:25;;;;;;;10.07;2.40;;;10.50;1.00;;;;;;7380381;19;20018;-70
2023/11/20 05:43:55;;;;;;;10.35;2.28;;;10.40;1.00;;;;;;7379881;19;20022;-70
2023/11/20 05:46:27;;;;;;;10.30;2.65;;;10.40;1.00;;;;;;7379867;19;20721;-70
2023/11/20 05:48:57;;;;;;;13.43;2.72;;;10.40;1.00;;;;;;7380646;19;20010;-70
2023/11/20 05:51:28;;;;;;;10.07;2.83;;;10.30;1.00;;;;;;7379263;19;20425;-70
2023/11/20 05:53:58;;;;;;;13.05;2.58;;;10.30;1.00;;;;;;7379840;19;20020;-70
2023/11/20 05:56:30;;;;;;;9.23;2.97;;;10.20;1.00;;;;;;7378907;19;20019;-69
2023/11/20 05:59:00;;;;;;;13.40;3.08;;;10.20;1.00;;;;;;7379843;19;20014;-70
2023/11/20 06:01:41;;;;;;;8.93;2.42;;;10.20;1.00;;;;;;7380678;19;20013;-69
2023/11/20 06:04:14;;;;;;;10.15;2.65;;;10.20;1.00;;;;;;7379849;19;20006;-69
2023/11/20 06:06:44;;;;;;;12.07;2.78;;;10.20;1.00;;;;;;7380263;19;20025;-69
2023/11/20 06:09:15;;;;;;;10.73;2.78;;;10.20;1.00;;;;;;7379120;19;20017;-70
2023/11/20 06:11:49;;;;;;;11.63;3.30;;;10.20;1.00;;;;;;7379259;19;20022;-69
2023/11/20 06:14:19;;;;;;;10.60;3.13;;;10.10;1.00;;;;;;7377121;19;20003;-69
2023/11/20 06:16:52;;;;;;;11.50;3.25;;;10.10;1.00;;;;;;7378512;19;20010;-69
2023/11/20 06:19:26;;;;;;;9.75;2.40;;;10.10;1.00;;;;;;7378198;19;20070;-69
2023/11/20 06:21:58;;;;;;;9.90;2.88;;;10.10;1.00;;;;;;7379254;19;20507;-69
2023/11/20 06:24:28;;;;;;;8.88;2.97;;;10.10;1.00;;;;;;7378101;19;20091;-71
2023/11/20 06:26:58;;;;;;;10.05;2.83;;;10.00;1.00;;;;;;7379813;19;20031;-70
2023/11/20 06:29:28;;;;;;;9.00;2.63;;;10.10;1.00;;;;;;7379033;19;20502;-69
2023/11/20 06:32:01;;;;;;;14.25;3.10;;;10.10;1.00;;;;;;7378390;19;20014;-70
2023/11/20 06:34:31;;;;;;;11.70;3.40;;;10.10;1.00;;;;;;7377909;19;20051;-69
2023/11/20 06:37:01;;;;;;;12.95;2.80;;;10.20;1.00;;;;;;7377898;19;20031;-69
2023/11/20 06:39:31;;;;;;;9.63;2.78;;;10.10;1.00;;;;;;7378340;19;20010;-69
2023/11/20 06:42:01;;;;;;;9.00;2.55;;;10.10;1.00;;;;;;7378326;19;20011;-69
2023/11/20 06:44:31;;;;;;;11.70;2.55;;;10.10;1.00;;;;;;7377096;19;21271;-69
2023/11/20 06:47:04;;;;;;;8.48;2.67;;;10.10;1.00;;;;;;7377624;19;20024;-69
2023/11/20 06:49:34;;;;;;;6.30;2.20;;;10.20;1.00;;;;;;7378517;19;20046;-70
2023/11/20 06:52:04;;;;;;;9.32;2.30;;;10.20;1.00;;;;;;7379446;19;20463;-70
2023/11/20 06:54:34;;;;;;;9.10;2.58;;;10.20;1.00;;;;;;7377059;19;20459;-69
2023/11/20 06:57:04;;;;;;;13.65;2.50;;;10.30;1.00;;;;;;7378492;19;20447;-69
2023/11/20 06:59:34;;;;;;;8.60;2.00;;;10.30;1.00;;;;;;7377577;19;19999;-70
2023/11/20 07:02:09;;;;;;;8.63;2.00;;;10.30;1.00;;;;;;7378170;19;20019;-69
2023/11/20 07:04:44;;;;;;;9.85;2.25;;;10.30;1.00;;;;;;7375358;19;20013;-70
2023/11/20 07:07:15;;;;;;;9.38;2.25;;;10.30;1.00;;;;;;7376810;19;20014;-69
2023/11/20 07:09:46;;;;;;;9.63;2.50;;;10.40;1.00;;;;;;7376982;19;20014;-69
2023/11/20 07:12:16;;;;;;;8.70;2.38;;;10.40;1.00;;;;;;7376475;19;20014;-69
2023/11/20 07:14:46;;;;;;;14.38;2.75;;;10.40;1.00;;;;;;7375029;19;20007;-69
2023/11/20 07:17:19;;;;;;;7.28;2.15;;;10.40;1.00;;;;;;7372729;19;20006;-69
2023/11/20 07:19:49;;;;;;;11.45;2.63;;;10.50;1.00;;;;;;7376004;19;20010;-70
2023/11/20 07:22:19;;;;;;;9.85;2.50;;;10.50;1.00;;;;;;7377012;19;20019;-70
2023/11/20 07:24:49;;;;;;;9.68;2.78;;;10.50;1.00;;;;;;7375247;19;20080;-69
2023/11/20 07:27:19;;;;;;;9.85;2.42;;;10.60;1.00;;;;;;7375180;19;20045;-69
2023/11/20 07:29:49;;;;;;;15.40;2.33;;;10.60;1.00;;;;;;7376558;19;20395;-69
2023/11/20 07:32:22;;;;;;;9.93;2.63;;;10.60;1.00;;;;;;7376837;19;20018;-69
2023/11/20 07:34:52;;;;;;;13.65;2.72;;;10.60;1.00;;;;;;7375948;19;20018;-69
2023/11/20 07:37:22;;;;;;;10.45;2.60;;;10.60;1.00;;;;;;7375777;19;20018;-69
2023/11/20 07:39:52;;;;;;;22.48;3.92;;;10.60;1.00;;;;;;7377429;19;20028;-69
2023/11/20 07:42:22;;;;;;;17.55;3.00;;;10.70;1.00;;;;;;7376454;19;20014;-69
2023/11/20 07:44:52;;;;;;;13.35;2.25;;;10.60;1.00;;;;;;7375477;19;20010;-69
2023/11/20 07:47:25;;;;;;;11.57;2.92;;;10.70;1.00;;;;;;7375753;19;20232;-69
2023/11/20 07:49:55;;;;;;;10.32;2.42;;;10.70;1.00;;;;;;7377174;19;20086;-70
2023/11/20 07:52:26;;;;;;;14.32;3.47;;;10.80;1.00;;;;;;7375017;19;20014;-69
2023/11/20 07:54:56;;;;;;;17.58;3.47;;;10.90;1.00;;;;;;7374637;19;20018;-69
2023/11/20 07:57:26;;;;;;;11.45;2.92;;;10.80;1.00;;;;;;7375869;19;20027;-70
2023/11/20 07:59:57;;;;;;;11.65;3.35;;;10.90;1.00;;;;;;7376754;19;20020;-69
2023/11/20 08:02:29;;;;;;;14.55;4.20;;;10.90;1.00;;;;;;7376702;19;20035;-69
2023/11/20 08:04:59;;;;;;;13.43;3.33;;;10.90;1.00;;;;;;7375703;19;20014;-69
2023/11/20 08:07:29;;;;;;;8.02;2.03;;;10.90;1.00;;;;;;7376302;19;20018;-69
2023/11/20 08:09:59;;;;;;;11.43;2.65;;;11.00;1.00;;;;;;7376265;19;20505;-70
2023/11/20 08:12:31;;;;;;;10.07;2.40;;;11.00;1.00;;;;;;7376072;19;20026;-69
2023/11/20 08:15:02;;;;;;;8.60;2.72;;;11.00;1.00;;;;;;7374225;19;20014;-69
2023/11/20 08:17:35;;;;;;;9.68;3.00;;;11.00;1.00;;;;;;7375294;19;20011;-70
2023/11/20 08:20:06;;;;;;;11.75;2.47;;;11.00;1.00;;;;;;7375674;19;23516;-69
2023/11/20 08:22:36;;;;;;;9.80;2.10;;;11.10;1.00;;;;;;7376128;19;20125;-70
2023/11/20 08:25:07;;;;;;;9.15;1.92;;;11.00;1.00;;;;;;7375558;19;20415;-70
2023/11/20 08:27:38;;;;;;;10.23;2.60;;;11.10;1.00;;;;;;7375597;19;20046;-70
2023/11/20 08:30:13;;;;;;;11.27;2.35;;;11.10;1.00;;;;;;7377465;19;20006;-71
2023/11/20 08:32:46;;;;;;;16.08;2.42;;;11.10;1.00;;;;;;7383174;19;20007;-70
2023/11/20 08:35:16;;;;;;;9.30;2.10;;;11.20;1.00;;;;;;7383588;19;20376;-70
2023/11/20 08:37:46;;;;;;;10.63;2.30;;;11.20;1.00;;;;;;7384966;19;20376;-70
2023/11/20 08:40:16;;;;;;;9.73;2.35;;;11.20;1.00;;;;;;7384520;19;20023;-70
2023/11/20 08:42:46;;;;;;;9.77;2.22;;;11.20;1.00;;;;;;7381548;19;20035;-71
2023/11/20 08:45:17;;;;;;;9.18;2.05;;;11.20;1.00;;;;;;7382289;19;20404;-70
2023/11/20 08:47:49;;;;;;;11.70;2.78;;;11.30;1.00;;;;;;7384262;19;20010;-71
2023/11/20 08:50:20;;;;;;;15.05;2.75;;;11.30;1.00;;;;;;7383285;19;20003;-70
2023/11/20 08:52:50;;;;;;;6.63;2.17;;;11.30;1.00;;;;;;7383448;19;20047;-70
2023/11/20 08:55:20;;;;;;;5.85;1.75;;;11.60;1.00;;;;;;7382366;19;20043;-70
2023/11/20 08:57:50;;;;;;;10.82;2.28;;;11.60;1.00;;;;;;7379943;19;20727;-70
2023/11/20 09:00:20;;;;;;;9.82;2.47;;;11.70;1.00;;;;;;7382676;19;20035;-69
2023/11/20 09:02:53;;;;;;;10.38;2.42;;;11.80;1.00;;;;;;7383395;19;20024;-68
2023/11/20 09:05:23;;;;;;;9.45;2.30;;;11.90;1.00;;;;;;7382167;19;20082;-68
2023/11/20 09:07:54;;;;;;;9.18;2.80;;;11.90;1.00;;;;;;7379208;19;20094;-69
2023/11/20 09:10:25;;;;;;;12.80;4.75;;;11.90;1.00;;;;;;7379530;19;20469;-70
2023/11/20 09:12:55;;;;;;;12.55;2.67;;;11.90;1.00;;;;;;7380871;19;20044;-70
2023/11/20 09:15:26;;;;;;;11.05;2.65;;;11.90;1.00;;;;;;7379200;19;20015;-70
2023/11/20 09:17:59;;;;;;;10.00;2.67;;;11.80;1.00;;;;;;7380286;19;20047;-70
2023/11/20 09:20:29;;;;;;;6.47;1.80;;;11.80;1.00;;;;;;7381388;19;20463;-70
2023/11/20 09:23:00;;;;;;;10.15;2.60;;;11.80;1.00;;;;;;7381225;19;20006;-70
2023/11/20 09:25:30;;;;;;;10.32;2.78;;;11.80;1.00;;;;;;7380006;19;20010;-70
2023/11/20 09:28:01;;;;;;;9.88;2.35;;;11.90;1.00;;;;;;7381204;19;20019;-70
2023/11/20 09:30:31;;;;;;;6.28;1.83;;;11.90;1.00;;;;;;7380658;19;20095;-70
2023/11/20 09:33:04;;;;;;;12.60;2.47;;;11.90;1.00;;;;;;7381216;19;20025;-70
2023/11/20 09:35:37;;;;;;;9.65;2.47;;;11.90;1.00;;;;;;7379879;19;20014;-70
2023/11/20 09:38:07;;;;;;;8.60;2.60;;;12.00;1.00;;;;;;7379274;19;20011;-70
2023/11/20 09:40:38;;;;;;;5.45;2.22;;;12.00;1.00;;;;;;7380814;19;20030;-70
2023/11/20 09:43:09;;;;;;;8.95;2.67;;;12.00;1.00;;;;;;7379199;19;20398;-70
2023/11/20 09:45:42;;;;;;;13.23;2.80;;;12.00;1.00;;;;;;7379634;19;20018;-70
2023/11/20 09:48:27;;;;;;;8.07;2.28;;;12.10;1.00;;;;;;7379797;19;20094;-70
2023/11/20 09:50:58;;;;;;;9.05;2.33;;;12.10;1.00;;;;;;7381536;19;20021;-69
2023/11/20 09:53:42;;;;;;;6.85;2.20;;;12.10;1.00;;;;;;6869699;19;2004771;-69
2023/11/20 09:56:13;;;;;;;5.47;1.60;;;12.00;1.00;;;;;;7379304;19;20027;-69
2023/11/20 09:58:44;;;;;;;9.02;2.10;;;11.90;1.00;;;;;;7379505;19;20014;-69
2023/11/20 10:01:14;;;;;;;7.38;2.13;;;11.80;1.00;;;;;;7378762;19;20776;-70
2023/11/20 10:03:51;;;;;;;6.22;1.80;;;11.80;1.00;;;;;;7379295;19;20011;-70
2023/11/20 10:06:25;;;;;;;5.43;1.85;;;12.00;1.00;;;;;;7379682;19;20007;-70
2023/11/20 10:08:56;;;;;;;10.00;2.30;;;12.20;1.00;;;;;;7378324;19;20006;-69
2023/11/20 10:11:27;;;;;;;8.20;1.98;;;12.20;1.00;;;;;;7376341;19;20010;-69
2023/11/20 10:13:57;;;;;;;8.88;1.83;;;12.30;1.00;;;;;;7379644;19;20466;-69
2023/11/20 10:16:32;;;;;;;6.63;1.40;;;12.30;1.00;;;;;;7378411;19;20086;-70
2023/11/20 10:19:05;;;;;;;5.53;1.50;;;12.30;1.00;;;;;;7378174;19;20093;-70
2023/11/20 10:21:35;;;;;;;14.43;2.17;;;12.40;1.00;;;;;;7380149;19;20014;-69
2023/11/20 10:24:06;;;;;;;7.90;2.38;;;12.30;1.00;;;;;;7375913;19;20409;-69
2023/11/20 10:26:37;;;;;;;4.88;1.65;;;12.50;1.00;;;;;;7378690;19;20397;-70
2023/11/20 10:29:09;;;;;;;6.35;1.50;;;12.40;1.00;;;;;;7378903;19;20005;-69
2023/11/20 10:31:45;;;;;;;7.43;1.85;;;12.30;1.00;;;;;;7378336;19;20012;-69
2023/11/20 10:34:20;;;;;;;4.15;1.50;;;12.20;1.00;;;;;;7377189;19;20045;-70
2023/11/20 10:37:08;;;;;;;5.53;1.52;;;12.40;1.00;;;;;;7378501;19;20015;-70
2023/11/20 10:39:40;;;;;;;5.65;1.67;;;12.50;1.00;;;;;;7376786;19;20483;-70
2023/11/20 10:42:13;;;;;;;6.63;1.42;;;12.50;1.00;;;;;;7376358;19;20007;-71
2023/11/20 10:44:45;;;;;;;6.80;1.77;;;12.10;1.00;;;;;;7377484;19;20835;-68
2023/11/20 10:47:15;;;;;;;7.60;1.98;;;12.30;1.00;;;;;;7377343;19;20017;-70
2023/11/20 10:49:48;;;;;;;5.63;1.63;;;12.30;1.00;;;;;;7376742;19;20453;-69
2023/11/20 10:52:25;;;;;;;8.65;1.75;;;12.20;1.00;;;;;;7376960;19;20482;-69
2023/11/20 10:55:01;;;;;;;11.10;1.80;;;12.00;1.00;;;;;;7375163;19;20010;-70
2023/11/20 10:57:35;;;;;;;9.35;1.90;;;11.80;1.00;;;;;;7378333;19;20771;-70
2023/11/20 11:00:10;;;;;;;7.15;2.28;;;11.70;1.00;;;;;;7375294;19;20394;-71
2023/11/20 11:02:42;;;;;;;8.35;1.75;;;11.70;1.00;;;;;;7377398;19;20010;-70
2023/11/20 11:05:15;;;;;;;8.88;2.05;;;11.60;1.00;;;;;;7375144;19;20082;-70
2023/11/20 11:07:45;;;;;;;6.72;1.60;;;11.90;1.00;;;;;;7376902;19;20006;-70
2023/11/20 11:10:16;;;;;;;6.70;2.20;;;12.00;1.00;;;;;;7379303;19;20509;-69
2023/11/20 11:12:47;;;;;;;6.85;1.55;;;11.90;1.00;;;;;;7378208;19;20010;-71
2023/11/20 11:15:18;;;;;;;4.47;1.25;;;11.90;1.00;;;;;;7375381;19;20009;-71
2023/11/20 11:17:51;;;;;;;10.13;1.98;;;12.10;1.00;;;;;;7376158;19;20039;-71
2023/11/20 11:20:31;;;;;;;6.43;2.28;;;12.10;1.00;;;;;;7373769;19;20031;-70
2023/11/20 11:23:05;;;;;;;4.97;1.38;;;12.10;1.00;;;;;;7371062;19;20025;-70
2023/11/20 11:25:42;;;;;;;4.45;1.02;;;11.90;1.00;;;;;;7373931;19;19999;-70
2023/11/20 11:28:16;;;;;;;5.85;1.23;;;11.90;1.00;;;;;;7374888;19;20023;-70
2023/11/20 11:30:49;;;;;;;3.63;1.20;;;11.90;1.00;;;;;;7376480;19;20393;-70
2023/11/20 11:33:52;;;;;;;4.30;1.40;;;12.10;1.00;;;;;;7375209;19;20014;-70
2023/11/20 11:36:30;;;;;;;4.05;1.02;;;12.20;1.00;;;;;;6860206;19;2004590;-70
2023/11/20 11:39:08;;;;;;;2.60;0.82;;;12.20;1.00;;;;;;7376843;19;20377;-70
2023/11/20 11:41:59;;;;;;;3.15;0.90;;;12.20;1.00;;;;;;7373309;19;20412;-70
2023/11/20 11:44:40;;;;;;;3.00;0.85;;;12.10;1.00;;;;;;7375215;19;20010;-70
2023/11/20 11:47:11;;;;;;;3.58;1.27;;;12.20;1.00;;;;;;7374312;19;20007;-69
2023/11/20 11:49:48;;;;;;;3.13;0.80;;;12.50;1.00;;;;;;7376049;19;20006;-69
2023/11/20 11:52:31;;;;;;;2.80;0.95;;;12.40;1.00;;;;;;7375933;19;20018;-70
2023/11/20 11:55:24;;;;;;;3.35;0.85;;;12.80;1.00;;;;;;7375364;19;20013;-70
2023/11/20 11:58:02;;;;;;;;;;;12.90;1.00;;;;;;6862920;19;2004785;-69
2023/11/20 12:00:33;;;;;;;3.70;0.90;;;12.70;1.00;;;;;;7375596;19;19922;-70
2023/11/20 12:03:08;;;;;;;3.67;0.90;;;12.60;1.00;;;;;;7371631;19;20011;-70
2023/11/20 12:06:13;;;;;;;3.78;0.60;;;12.30;1.00;;;;;;7372753;19;20078;-69
2023/11/20 12:08:49;;;;;;;1.85;0.47;;;12.00;1.00;;;;;;7373948;19;20010;-70
2023/11/20 12:11:52;;;;;;;1.92;0.47;;;11.70;1.00;;;;;;7375583;19;20010;-71
2023/11/20 12:14:23;;;;;;;2.55;0.70;;;11.80;1.00;;;;;;6865069;19;2004963;-70
2023/11/20 12:16:54;;;;;;;3.45;0.70;;;11.70;1.00;;;;;;7375523;19;20021;-69
2023/11/20 12:19:23;;;;;;;2.45;0.70;;;11.60;1.00;;;;;;7375372;19;20022;-69
2023/11/20 12:21:53;;;;;;;1.92;0.65;;;11.90;1.00;;;;;;7374967;19;20085;-69
2023/11/20 12:24:27;;;;;;;6.75;2.05;;;12.10;1.00;;;;;;7373038;19;20014;-69
2023/11/20 12:26:57;;;;;;;3.08;0.80;;;12.40;1.00;;;;;;7375804;19;20014;-70
2023/11/20 12:29:28;;;;;;;3.05;0.90;;;12.30;1.00;;;;;;7375054;19;20026;-69
2023/11/20 12:31:59;;;;;;;3.45;0.75;;;12.20;1.00;;;;;;7374295;19;20031;-69
2023/11/20 12:34:33;;;;;;;3.00;0.90;;;12.30;1.00;;;;;;7373553;19;20031;-69
2023/11/20 12:37:03;;;;;;;3.55;1.40;;;12.00;1.00;;;;;;7374784;19;20014;-69
2023/11/20 12:39:36;;;;;;;2.38;1.10;;;11.90;1.00;;;;;;7375800;19;20006;-69
2023/11/20 12:42:07;;;;;;;1.92;0.73;;;11.70;1.00;;;;;;7374906;19;20002;-70
2023/11/20 12:44:37;;;;;;;2.60;0.90;;;11.70;1.00;;;;;;7375883;19;20893;-70
2023/11/20 12:47:07;;;;;;;2.97;1.15;;;11.70;1.00;;;;;;7377061;19;20011;-70
2023/11/20 12:49:38;;;;;;;3.85;1.10;;;11.80;1.00;;;;;;7371437;19;20010;-70
2023/11/20 12:52:08;;;;;;;2.30;1.00;;;11.70;1.00;;;;;;7375151;19;20046;-70
2023/11/20 12:54:41;;;;;;;3.65;1.55;;;11.60;1.00;;;;;;7373763;19;20014;-70
2023/11/20 12:57:12;;;;;;;2.83;1.10;;;11.60;1.00;;;;;;7373115;19;20021;-70
2023/11/20 12:59:44;;;;;;;5.28;1.10;;;11.50;1.00;;;;;;7373780;19;20016;-69
2023/11/20 13:02:15;;;;;;;5.68;1.10;;;11.50;1.00;;;;;;7373380;19;20031;-70
2023/11/20 13:04:54;;;;;;;2.28;0.98;;;11.50;1.00;;;;;;7373045;19;20010;-69
2023/11/20 13:07:24;;;;;;;4.82;1.33;;;11.50;1.00;;;;;;7374584;19;20344;-70
2023/11/20 13:09:57;;;;;;;3.08;0.88;;;11.70;1.00;;;;;;7374285;19;20107;-70
2023/11/20 13:12:30;;;;;;;2.13;0.70;;;11.70;1.00;;;;;;7374961;19;20015;-69
2023/11/20 13:15:02;;;;;;;2.80;0.93;;;11.70;1.00;;;;;;7373487;19;24542;-70
2023/11/20 13:17:32;;;;;;;6.25;2.75;;;11.80;1.00;;;;;;7378051;19;20006;-69